createdAt,value
2022-08-03T00:02:47.803Z,3.53
2022-08-03T00:07:45.246Z,3.13
2022-08-03T00:12:42.727Z,3.03
2022-08-03T00:17:52.486Z,2.83
2022-08-03T00:22:51.748Z,3.33
2022-08-03T00:27:50.385Z,3.50
2022-08-03T00:32:48.636Z,3.30
2022-08-03T00:37:46.277Z,3.17
2022-08-03T00:42:50.956Z,3.67
2022-08-03T00:47:48.854Z,3.15
2022-08-03T00:52:47.468Z,2.95
2022-08-03T00:57:45.796Z,3.53
2022-08-03T01:02:43.406Z,3.10
2022-08-03T01:07:46.555Z,2.97
2022-08-03T01:14:01.945Z,2.92
2022-08-03T01:18:39.224Z,3.33
2022-08-03T01:23:59.808Z,4.07
2022-08-03T01:29:15.613Z,3.30
2022-08-03T01:34:16.092Z,3.50
2022-08-03T01:39:13.902Z,4.10
2022-08-03T01:44:29.570Z,2.85
2022-08-03T01:49:30.942Z,3.03
2022-08-03T01:54:29.553Z,3.17
2022-08-03T01:59:29.726Z,2.63
2022-08-03T02:04:28.901Z,2.85
2022-08-03T02:09:28.099Z,3.50
2022-08-03T02:14:26.948Z,3.13
2022-08-03T02:19:26.782Z,3.05
2022-08-03T02:24:24.313Z,3.58
2022-08-03T02:29:39.177Z,3.42
2022-08-03T02:34:40.277Z,2.50
2022-08-03T02:39:39.706Z,3.07
2022-08-03T02:44:39.481Z,2.83
2022-08-03T02:49:50.085Z,2.77
2022-08-03T02:54:53.689Z,3.00
2022-08-03T02:59:53.656Z,3.33
2022-08-03T03:05:01.364Z,3.72
2022-08-03T03:10:10.845Z,2.95
2022-08-03T03:15:08.702Z,2.60
2022-08-03T03:20:08.275Z,3.17
2022-08-03T03:25:07.610Z,2.97
2022-08-03T03:30:05.430Z,3.70
2022-08-03T03:35:04.930Z,2.88
2022-08-03T03:40:04.666Z,3.22
2022-08-03T03:45:06.910Z,2.80
2022-08-03T03:50:06.020Z,3.45
2022-08-03T03:55:03.955Z,2.90
2022-08-03T04:00:01.272Z,3.50
2022-08-03T04:05:17.319Z,3.05
2022-08-03T04:10:38.969Z,3.75
2022-08-03T04:15:38.879Z,3.05
2022-08-03T04:20:41.011Z,3.10
2022-08-03T04:25:43.599Z,3.33
2022-08-03T04:30:48.456Z,3.13
2022-08-03T04:36:02.184Z,3.15
2022-08-03T04:41:04.525Z,3.38
2022-08-03T04:46:03.516Z,2.88
2022-08-03T04:51:05.464Z,2.63
2022-08-03T04:56:12.564Z,3.28
2022-08-03T05:01:10.445Z,2.88
2022-08-03T05:06:11.313Z,3.38
2022-08-03T05:11:08.989Z,2.58
2022-08-03T05:16:06.418Z,3.35
2022-08-03T05:21:04.089Z,3.28
2022-08-03T05:26:01.594Z,3.15
2022-08-03T05:31:02.195Z,3.20
2022-08-03T05:36:04.408Z,3.65
2022-08-03T05:41:22.230Z,3.25
2022-08-03T05:46:19.740Z,3.22
2022-08-03T05:51:17.438Z,2.45
2022-08-03T05:56:16.448Z,2.25
2022-08-03T06:01:14.680Z,1.88
2022-08-03T06:06:12.288Z,2.10
2022-08-03T06:11:10.073Z,1.57
2022-08-03T06:16:07.627Z,1.30
2022-08-03T06:21:14.352Z,2.00
2022-08-03T06:31:10.818Z,1.63
2022-08-03T06:36:08.169Z,2.60
2022-08-03T06:41:09.400Z,1.40
2022-08-03T06:46:06.711Z,1.40
2022-08-03T06:51:04.124Z,2.45
2022-08-03T06:56:08.139Z,2.03
2022-08-03T07:01:05.709Z,1.30
2022-08-03T07:06:03.484Z,1.63
2022-08-03T07:11:00.810Z,1.60
2022-08-03T07:15:58.060Z,1.73
2022-08-03T07:20:55.294Z,1.40
2022-08-03T07:25:52.753Z,1.75
2022-08-03T07:30:50.086Z,1.52
2022-08-03T07:35:47.344Z,1.95
2022-08-03T07:40:46.434Z,1.73
2022-08-03T07:45:43.958Z,1.95
2022-08-03T07:50:41.518Z,2.20
2022-08-03T07:55:38.882Z,1.35
2022-08-03T08:00:36.710Z,2.05
2022-08-03T08:05:34.437Z,2.53
2022-08-03T08:10:33.105Z,1.98
2022-08-03T08:15:30.619Z,1.65
2022-08-03T08:20:31.800Z,1.80
2022-08-03T08:25:30.900Z,1.95
2022-08-03T08:30:28.562Z,1.80
2022-08-03T08:35:28.646Z,1.65
2022-08-03T08:40:27.747Z,1.63
2022-08-03T08:45:25.162Z,1.80
2022-08-03T08:50:27.992Z,1.55
2022-08-03T08:55:25.646Z,1.83
2022-08-03T09:00:22.858Z,1.90
2022-08-03T09:05:35.756Z,2.10
2022-08-03T09:10:38.490Z,3.13
2022-08-03T09:15:36.022Z,1.87
2022-08-03T09:20:35.286Z,2.30
2022-08-03T09:25:41.443Z,1.80
2022-08-03T09:30:41.700Z,1.92
2022-08-03T09:35:53.503Z,1.83
2022-08-03T09:40:55.930Z,2.10
2022-08-03T09:46:07.658Z,2.00
2022-08-03T09:56:34.596Z,1.85
2022-08-03T10:01:39.027Z,1.70
2022-08-03T10:06:36.292Z,1.52
2022-08-03T10:11:40.411Z,2.13
2022-08-03T10:16:40.373Z,1.48
2022-08-03T10:21:43.077Z,1.95
2022-08-03T10:26:49.973Z,1.52
2022-08-03T10:31:57.596Z,1.92
2022-08-03T10:36:59.269Z,2.00
2022-08-03T10:42:03.029Z,2.00
2022-08-03T10:47:01.129Z,1.63
2022-08-03T10:51:58.502Z,1.73
2022-08-03T10:57:24.840Z,1.80
2022-08-03T11:03:03.516Z,1.70
2022-08-03T11:08:23.464Z,1.33
2022-08-03T11:13:23.688Z,2.00
2022-08-03T11:18:21.508Z,2.00
2022-08-03T11:24:04.598Z,1.75
2022-08-03T11:29:31.676Z,1.20
2022-08-03T11:34:29.066Z,1.83
2022-08-03T11:39:46.718Z,1.58
2022-08-03T11:44:47.506Z,1.77
2022-08-03T11:49:47.944Z,1.80
2022-08-03T11:54:45.571Z,2.00
2022-08-03T11:59:42.863Z,1.67
2022-08-03T12:05:02.793Z,1.60
2022-08-03T12:10:14.572Z,1.67
2022-08-03T12:15:11.912Z,1.67
2022-08-03T12:20:34.754Z,1.40
2022-08-03T12:25:38.656Z,1.00
2022-08-03T12:30:39.208Z,1.02
2022-08-03T12:35:36.793Z,1.20
2022-08-03T12:40:34.332Z,1.40
2022-08-03T12:45:32.207Z,1.13
2022-08-03T12:50:29.531Z,0.95
2022-08-03T12:56:04.974Z,0.90
2022-08-03T13:01:05.121Z,1.33
2022-08-03T13:06:26.649Z,1.15
2022-08-03T13:11:47.556Z,1.08
2022-08-03T13:16:44.092Z,1.13
2022-08-03T13:22:01.866Z,1.23
2022-08-03T13:26:59.424Z,0.90
2022-08-03T13:32:06.798Z,1.10
2022-08-03T13:37:09.284Z,1.33
2022-08-03T13:42:07.582Z,1.20
2022-08-03T13:47:05.269Z,1.00
2022-08-03T13:52:04.824Z,1.13
2022-08-03T13:57:02.980Z,0.95
2022-08-03T14:02:24.940Z,1.42
2022-08-03T14:07:22.597Z,1.10
2022-08-03T14:12:19.818Z,1.13
2022-08-03T14:17:17.174Z,7.18
2022-08-03T14:22:14.683Z,9.25
2022-08-03T14:27:11.935Z,2.40
2022-08-03T14:32:12.870Z,1.55
2022-08-03T14:37:10.787Z,1.08
2022-08-03T14:42:08.205Z,1.05
2022-08-03T14:47:05.591Z,0.73
2022-08-03T14:52:02.965Z,0.73
2022-08-03T14:57:00.380Z,0.80
2022-08-03T15:02:02.768Z,1.10
2022-08-03T15:07:02.451Z,1.05
2022-08-03T15:12:00.109Z,0.90
2022-08-03T15:16:57.386Z,1.10
2022-08-03T15:21:54.696Z,1.05
2022-08-03T15:26:52.918Z,0.90
2022-08-03T15:31:50.175Z,0.80
2022-08-03T15:36:47.831Z,1.20
2022-08-03T15:41:45.395Z,1.02
2022-08-03T15:46:42.732Z,1.30
2022-08-03T15:51:40.057Z,1.00
2022-08-03T15:56:37.341Z,1.27
2022-08-03T16:01:34.957Z,0.80
2022-08-03T16:06:35.510Z,0.90
2022-08-03T16:11:34.273Z,1.10
2022-08-03T16:16:31.543Z,0.90
2022-08-03T16:21:28.957Z,1.10
2022-08-03T16:26:34.984Z,1.42
2022-08-03T16:31:32.467Z,1.20
2022-08-03T16:36:34.614Z,1.20
2022-08-03T16:41:53.942Z,0.90
2022-08-03T16:46:49.590Z,1.17
2022-08-03T16:51:50.500Z,1.48
2022-08-03T16:56:48.339Z,1.10
2022-08-03T17:01:48.129Z,1.40
2022-08-03T17:06:45.879Z,1.33
2022-08-03T17:11:47.606Z,1.30
2022-08-03T17:16:52.559Z,1.10
2022-08-03T17:22:04.219Z,1.20
2022-08-03T17:27:18.663Z,1.27
2022-08-03T17:32:27.044Z,1.17
2022-08-03T17:37:49.925Z,1.40
2022-08-03T17:42:43.296Z,1.67
2022-08-03T17:47:41.865Z,1.40
2022-08-03T17:52:48.257Z,1.00
2022-08-03T17:58:02.025Z,1.67
2022-08-03T18:03:20.671Z,2.50
2022-08-03T18:08:30.148Z,2.05
2022-08-03T18:13:34.033Z,2.28
2022-08-03T18:18:39.435Z,2.60
2022-08-03T18:23:40.607Z,2.65
2022-08-03T18:28:40.910Z,2.75
2022-08-03T18:34:19.728Z,1.85
2022-08-03T18:39:02.740Z,1.60
2022-08-03T18:44:06.780Z,3.10
2022-08-03T18:49:14.357Z,2.38
2022-08-03T18:54:45.733Z,2.35
2022-08-03T18:59:59.337Z,1.70
2022-08-03T19:05:08.812Z,2.50
2022-08-03T19:15:12.587Z,2.10
2022-08-03T19:20:10.766Z,2.65
2022-08-03T19:25:12.138Z,1.80
2022-08-03T19:30:21.991Z,1.80
2022-08-03T19:35:54.698Z,2.40
2022-08-03T19:40:44.554Z,2.20
2022-08-03T19:46:06.356Z,1.55
2022-08-03T19:51:12.458Z,2.00
2022-08-03T19:56:12.574Z,3.55
2022-08-03T20:01:19.125Z,2.63
2022-08-03T20:06:22.413Z,2.85
2022-08-03T20:11:20.960Z,2.72
2022-08-03T20:16:26.781Z,2.00
2022-08-03T20:21:25.775Z,2.90
2022-08-03T20:26:28.895Z,2.33
2022-08-03T20:31:36.165Z,2.35
2022-08-03T20:36:33.845Z,3.80
2022-08-03T20:41:31.801Z,2.88
2022-08-03T20:46:41.435Z,2.17
2022-08-03T20:51:50.140Z,2.95
2022-08-03T20:56:50.688Z,2.25
2022-08-03T21:01:48.597Z,2.33
2022-08-03T21:06:53.209Z,2.58
2022-08-03T21:11:52.585Z,2.55
2022-08-03T21:16:54.592Z,3.22
2022-08-03T21:21:53.895Z,2.05
2022-08-03T21:26:54.066Z,2.38
2022-08-03T21:31:51.847Z,2.03
2022-08-03T21:36:49.626Z,2.28
2022-08-03T21:41:46.985Z,2.30
2022-08-03T21:46:45.895Z,2.08
2022-08-03T21:51:43.489Z,2.20
2022-08-03T21:56:47.467Z,1.85
2022-08-03T22:01:48.861Z,1.98
2022-08-03T22:06:47.520Z,2.90
2022-08-03T22:11:48.213Z,2.33
2022-08-03T22:16:45.966Z,2.10
2022-08-03T22:21:48.987Z,2.60
2022-08-03T22:27:07.288Z,3.38
2022-08-03T22:32:04.840Z,3.42
2022-08-03T22:37:04.717Z,2.60
2022-08-03T22:47:03.684Z,2.15
2022-08-03T22:52:01.938Z,2.30
2022-08-03T22:56:59.289Z,2.63
2022-08-03T23:02:02.480Z,2.40
2022-08-03T23:07:30.059Z,2.60
2022-08-03T23:12:30.704Z,2.50
2022-08-03T23:17:31.792Z,2.75
2022-08-03T23:22:30.771Z,2.85
2022-08-03T23:27:28.940Z,2.90
2022-08-03T23:32:29.155Z,2.90
2022-08-03T23:37:27.125Z,3.00
2022-08-03T23:42:25.661Z,3.35
2022-08-03T23:47:23.541Z,3.42
2022-08-03T23:52:39.216Z,3.70
2022-08-03T23:57:53.386Z,3.85
